createdAt,value
2022-12-17T00:03:52.372Z,102305.44
2022-12-17T00:09:12.880Z,102311.75
2022-12-17T00:14:36.864Z,102303.09
2022-12-17T00:19:58.680Z,102309.31
2022-12-17T00:25:19.154Z,102315.06
2022-12-17T00:30:40.548Z,102319.53
2022-12-17T00:36:02.359Z,102314.06
2022-12-17T00:41:26.066Z,102306.09
2022-12-17T00:46:48.602Z,102324.81
2022-12-17T00:52:16.113Z,102333.28
2022-12-17T00:57:36.965Z,102318.91
2022-12-17T01:02:57.465Z,102320.31
2022-12-17T01:08:27.088Z,102342.88
2022-12-17T01:13:47.692Z,102333.94
2022-12-17T01:19:08.234Z,102340.78
2022-12-17T01:24:30.699Z,102332.41
2022-12-17T01:30:00.410Z,102320.03
2022-12-17T01:35:20.980Z,102345.00
2022-12-17T01:40:43.038Z,102360.47
2022-12-17T01:46:08.295Z,102346.41
2022-12-17T01:51:29.091Z,102348.44
2022-12-17T01:56:51.720Z,102357.06
2022-12-17T02:02:12.588Z,102340.28
2022-12-17T02:07:48.066Z,102364.00
2022-12-17T02:13:14.625Z,102377.66
2022-12-17T02:18:39.802Z,102374.44
2022-12-17T02:24:09.606Z,102377.34
2022-12-17T02:29:32.980Z,102371.84
2022-12-17T02:35:02.634Z,102374.91
2022-12-17T02:40:25.000Z,102380.44
2022-12-17T02:45:47.510Z,102385.28
2022-12-17T02:51:10.227Z,102369.28
2022-12-17T02:56:30.874Z,102386.94
2022-12-17T03:01:54.428Z,102392.81
2022-12-17T03:07:14.947Z,102399.91
2022-12-17T03:12:36.944Z,102408.41
2022-12-17T03:17:59.129Z,102403.50
2022-12-17T03:23:23.325Z,102401.50
2022-12-17T03:28:43.646Z,102400.00
2022-12-17T03:34:05.657Z,102385.69
2022-12-17T03:39:26.344Z,102398.59
2022-12-17T03:44:46.857Z,102417.31
2022-12-17T03:50:08.866Z,102408.66
2022-12-17T03:55:29.401Z,102407.53
2022-12-17T04:00:49.909Z,102407.00
2022-12-17T04:06:11.782Z,102415.03
2022-12-17T04:11:32.252Z,102416.53
2022-12-17T04:16:52.869Z,102419.06
2022-12-17T04:22:14.506Z,102419.81
2022-12-17T04:27:40.369Z,102435.84
2022-12-17T04:33:00.983Z,102444.19
2022-12-17T04:38:23.147Z,102445.09
2022-12-17T04:43:44.002Z,102437.94
2022-12-17T04:49:04.455Z,102457.03
2022-12-17T04:54:26.486Z,102457.50
2022-12-17T04:59:47.129Z,102444.47
2022-12-17T05:05:07.534Z,102453.84
2022-12-17T05:10:29.340Z,102459.03
2022-12-17T05:15:53.248Z,102452.84
2022-12-17T05:21:14.115Z,102451.09
2022-12-17T05:26:38.561Z,102451.44
2022-12-17T05:31:59.350Z,102457.13
2022-12-17T05:37:20.254Z,102455.41
2022-12-17T05:42:42.209Z,102457.13
2022-12-17T05:48:02.624Z,102460.75
2022-12-17T05:53:24.152Z,102459.44
2022-12-17T05:58:46.106Z,102458.19
2022-12-17T06:04:06.788Z,102455.16
2022-12-17T06:09:30.506Z,102464.00
2022-12-17T06:14:52.245Z,102463.69
2022-12-17T06:20:12.934Z,102461.44
2022-12-17T06:25:30.010Z,102471.56
2022-12-17T06:30:52.094Z,102475.66
2022-12-17T06:36:21.353Z,102466.50
2022-12-17T06:41:46.445Z,102459.94
2022-12-17T06:47:08.452Z,102475.44
2022-12-17T06:52:29.374Z,102495.25
2022-12-17T06:57:50.612Z,102501.63
2022-12-17T07:03:15.346Z,102498.91
2022-12-17T07:08:47.607Z,102502.66
2022-12-17T07:14:08.532Z,102512.53
2022-12-17T07:19:30.741Z,102502.06
2022-12-17T07:25:02.840Z,102515.22
2022-12-17T07:30:27.318Z,102523.94
2022-12-17T07:35:48.993Z,102547.50
2022-12-17T07:41:09.695Z,102561.44
2022-12-17T07:46:30.113Z,102569.53
2022-12-17T07:51:52.246Z,102589.66
2022-12-17T07:57:12.679Z,102578.84
2022-12-17T08:02:35.089Z,102574.88
2022-12-17T08:07:56.970Z,102593.28
2022-12-17T08:13:19.790Z,102600.28
2022-12-17T08:18:40.445Z,102587.41
2022-12-17T08:24:02.742Z,102603.22
2022-12-17T08:29:23.225Z,102585.88
2022-12-17T08:34:46.423Z,102599.75
2022-12-17T08:40:08.264Z,102596.09
2022-12-17T08:45:31.891Z,102600.28
2022-12-17T08:50:52.961Z,102563.44
2022-12-17T08:56:15.098Z,102598.16
2022-12-17T09:01:35.695Z,102588.38
2022-12-17T09:06:56.120Z,102618.25
2022-12-17T09:12:18.102Z,102631.00
2022-12-17T09:17:40.951Z,102643.13
2022-12-17T09:23:06.129Z,102639.34
2022-12-17T09:28:28.423Z,102639.28
2022-12-17T09:33:49.265Z,102616.59
2022-12-17T09:39:10.370Z,102640.09
2022-12-17T09:44:41.658Z,102661.44
2022-12-17T09:50:02.407Z,102626.34
2022-12-17T09:55:36.337Z,102656.94
2022-12-17T10:01:01.051Z,102656.78
2022-12-17T10:06:27.268Z,102666.63
2022-12-17T10:11:49.426Z,102667.88
2022-12-17T10:17:12.224Z,102675.47
2022-12-17T10:22:38.944Z,102671.72
2022-12-17T10:28:01.096Z,102667.56
2022-12-17T10:33:25.226Z,102662.47
2022-12-17T10:38:48.470Z,102657.22
2022-12-17T10:44:09.197Z,102654.06
2022-12-17T10:49:34.115Z,102621.03
2022-12-17T10:54:56.163Z,102650.13
2022-12-17T11:00:16.872Z,102657.22
2022-12-17T11:05:45.162Z,102663.69
2022-12-17T11:11:07.005Z,102656.94
2022-12-17T11:16:39.243Z,102669.25
2022-12-17T11:22:03.967Z,102671.16
2022-12-17T11:27:31.954Z,102683.31
2022-12-17T11:33:19.608Z,102674.44
2022-12-17T11:38:51.748Z,102666.19
2022-12-17T11:44:20.668Z,102685.88
2022-12-17T11:49:52.536Z,102671.63
2022-12-17T11:55:22.675Z,102668.41
2022-12-17T12:01:07.996Z,102662.34
2022-12-17T12:06:35.940Z,102662.63
2022-12-17T12:12:04.457Z,102670.31
2022-12-17T12:26:42.965Z,102646.53
2022-12-17T12:32:15.821Z,102657.94
2022-12-17T12:37:39.442Z,102649.13
2022-12-17T12:43:09.323Z,102647.38
2022-12-17T12:48:44.668Z,102636.13
2022-12-17T12:54:15.983Z,102661.00
2022-12-17T12:59:45.641Z,102656.63
2022-12-17T13:05:12.925Z,102665.97
2022-12-17T13:10:28.496Z,102657.00
2022-12-17T13:15:39.020Z,102657.56
2022-12-17T13:20:42.545Z,102654.38
2022-12-17T13:25:47.766Z,102650.28
2022-12-17T13:31:03.630Z,102649.91
2022-12-17T13:36:14.307Z,102642.41
2022-12-17T13:41:20.554Z,102643.16
2022-12-17T13:46:28.772Z,102645.50
2022-12-17T13:51:35.486Z,102633.09
2022-12-17T13:56:38.769Z,102638.66
2022-12-17T14:01:50.340Z,102644.59
2022-12-17T14:06:55.264Z,102642.06
2022-12-17T14:12:30.739Z,102625.25
2022-12-17T14:17:41.771Z,102655.78
2022-12-17T14:22:51.692Z,102656.53
2022-12-17T14:28:00.512Z,102673.38
2022-12-17T14:33:06.406Z,102669.41
2022-12-17T14:38:37.441Z,102680.06
2022-12-17T14:43:47.937Z,102675.50
2022-12-17T14:49:02.631Z,102666.06
2022-12-17T14:54:20.298Z,102688.25
2022-12-17T14:59:31.180Z,102683.72
2022-12-17T15:04:38.701Z,102699.06
2022-12-17T15:09:42.888Z,102692.53
2022-12-17T15:14:46.681Z,102682.19
2022-12-17T15:19:55.982Z,102704.25
2022-12-17T15:24:59.431Z,102695.91
2022-12-17T15:30:02.503Z,102698.88
2022-12-17T15:35:09.441Z,102718.22
2022-12-17T15:40:13.174Z,102725.06
2022-12-17T15:45:16.634Z,102715.81
2022-12-17T15:50:21.226Z,102722.47
2022-12-17T15:55:24.385Z,102730.22
2022-12-17T16:00:27.727Z,102724.81
2022-12-17T16:05:32.207Z,102738.38
2022-12-17T16:10:35.516Z,102737.31
2022-12-17T16:15:38.732Z,102744.69
2022-12-17T16:20:43.591Z,102747.50
2022-12-17T16:25:46.802Z,102751.75
2022-12-17T16:30:59.182Z,102728.09
2022-12-17T16:36:04.237Z,102745.75
2022-12-17T16:41:07.355Z,102749.59
2022-12-17T16:46:29.078Z,102735.78
2022-12-17T16:51:35.096Z,102755.97
2022-12-17T16:56:43.967Z,102753.25
2022-12-17T17:01:49.628Z,102734.75
2022-12-17T17:06:55.519Z,102747.28
2022-12-17T17:11:59.844Z,102768.44
2022-12-17T17:17:03.048Z,102766.78
2022-12-17T17:22:07.558Z,102751.00
2022-12-17T17:27:10.724Z,102768.50
2022-12-17T17:32:14.234Z,102763.53
2022-12-17T17:37:19.382Z,102770.34
2022-12-17T17:42:22.407Z,102779.78
2022-12-17T17:47:25.583Z,102770.19
2022-12-17T17:52:30.045Z,102772.38
2022-12-17T17:57:33.024Z,102779.38
2022-12-17T18:02:36.290Z,102777.75
2022-12-17T18:07:40.994Z,102781.28
2022-12-17T18:13:01.318Z,102763.06
2022-12-17T18:18:07.346Z,102755.22
2022-12-17T18:23:14.035Z,102776.16
2022-12-17T18:28:17.205Z,102784.66
2022-12-17T18:33:20.194Z,102777.69
2022-12-17T18:38:24.718Z,102776.03
2022-12-17T18:43:27.811Z,102778.59
2022-12-17T18:48:30.880Z,102780.25
2022-12-17T18:53:35.894Z,102789.63
2022-12-17T18:58:39.099Z,102792.75
2022-12-17T19:03:42.260Z,102788.00
2022-12-17T19:08:47.151Z,102781.38
2022-12-17T19:13:51.576Z,102798.50
2022-12-17T19:18:56.964Z,102801.25
2022-12-17T19:24:07.334Z,102810.81
2022-12-17T19:29:13.041Z,102818.56
2022-12-17T19:34:17.931Z,102818.94
2022-12-17T19:39:22.774Z,102826.66
2022-12-17T19:44:27.150Z,102827.19
2022-12-17T19:49:30.513Z,102839.00
2022-12-17T19:54:35.622Z,102843.59
2022-12-17T19:59:38.897Z,102823.34
2022-12-17T20:04:42.140Z,102840.09
2022-12-17T20:09:46.565Z,102838.44
2022-12-17T20:14:49.851Z,102838.06
2022-12-17T20:19:53.878Z,102849.47
2022-12-17T20:25:01.533Z,102843.22
2022-12-17T20:30:05.941Z,102840.81
2022-12-17T20:35:12.599Z,102836.22
2022-12-17T20:40:23.531Z,102819.28
2022-12-17T20:45:26.747Z,102822.97
2022-12-17T20:50:34.712Z,102825.19
2022-12-17T20:55:39.030Z,102820.41
2022-12-17T21:00:43.356Z,102824.44
2022-12-17T21:05:46.573Z,102811.00
2022-12-17T21:10:59.079Z,102772.56
2022-12-17T21:16:07.490Z,102815.44
2022-12-17T21:21:14.055Z,102819.28
2022-12-17T21:26:21.712Z,102832.72
2022-12-17T21:31:27.473Z,102840.81
2022-12-17T21:36:33.510Z,102863.44
2022-12-17T21:41:44.536Z,102861.03
2022-12-17T21:46:50.314Z,102881.84
2022-12-17T21:51:53.668Z,102873.00
2022-12-17T21:56:58.439Z,102883.66
2022-12-17T22:02:01.602Z,102895.25
2022-12-17T22:07:17.387Z,102899.28
2022-12-17T22:12:44.801Z,102905.53
2022-12-17T22:17:47.832Z,102893.22
2022-12-17T22:22:51.483Z,102908.16
2022-12-17T22:27:56.929Z,102889.53
2022-12-17T22:33:14.783Z,102905.38
2022-12-17T22:43:07.644Z,102907.72
2022-12-17T22:44:43.761Z,102906.84
2022-12-17T22:49:16.041Z,102879.56
2022-12-17T22:54:19.304Z,102889.50
2022-12-17T22:59:24.422Z,102892.28
2022-12-17T23:04:27.669Z,102890.22
2022-12-17T23:09:31.116Z,102884.28
2022-12-17T23:14:35.634Z,102894.22
2022-12-17T23:19:39.100Z,102889.28
2022-12-17T23:24:43.973Z,102894.59
2022-12-17T23:29:48.477Z,102882.09
2022-12-17T23:34:51.588Z,102878.97
2022-12-17T23:39:54.686Z,102891.28
2022-12-17T23:44:59.095Z,102895.84
2022-12-17T23:50:04.204Z,102884.78
2022-12-17T23:55:08.595Z,102871.22
